Time;durP1;ratioP1;P1;durP2;ratioP2;P2;SDS_P1;SDS_P2;PMS_P1;PMS_P2;Temp;Humidity;BMP_temperature;BMP_pressure;BME280_temperature;BME280_humidity;BME280_pressure;Samples;Min_cycle;Max_cycle;Signal;HPM_P1;HPM_P2
2021/03/03 00:01:59;;;;;;;28.40;16.07;;;-0.20;99.90;;;;;;4932999;29;20445;-78
2021/03/03 00:04:26;;;;;;;25.23;14.40;;;-0.20;99.90;;;;;;4933203;29;20035;-78
2021/03/03 00:06:51;;;;;;;28.20;14.80;;;-0.30;99.90;;;;;;4915768;29;20032;-78
2021/03/03 00:09:17;;;;;;;25.40;13.87;;;-0.30;99.90;;;;;;4933445;29;20107;-78
2021/03/03 00:11:43;;;;;;;24.03;13.80;;;-0.30;99.90;;;;;;4937669;29;20055;-78
2021/03/03 00:14:08;;;;;;;26.47;14.47;;;-0.30;99.90;;;;;;4951920;29;20054;-78
2021/03/03 00:16:34;;;;;;;34.53;14.50;;;-0.30;99.90;;;;;;4934621;29;20118;-79
2021/03/03 00:18:59;;;;;;;23.40;13.10;;;-0.30;99.90;;;;;;4952122;29;20035;-78
2021/03/03 00:21:25;;;;;;;24.67;13.87;;;-0.30;99.90;;;;;;4952081;29;20027;-78
2021/03/03 00:23:51;;;;;;;27.33;14.60;;;-0.30;99.90;;;;;;4952042;29;20054;-78
2021/03/03 00:26:16;;;;;;;28.50;13.73;;;-0.30;99.90;;;;;;4937510;29;20517;-78
2021/03/03 00:28:43;;;;;;;28.90;14.10;;;-0.30;99.90;;;;;;4945958;29;20027;-79
2021/03/03 00:31:08;;;;;;;27.80;14.70;;;-0.30;99.90;;;;;;4943863;29;20064;-79
2021/03/03 00:33:34;;;;;;;27.53;13.87;;;-0.40;99.90;;;;;;4932870;29;20831;-79
2021/03/03 00:36:00;;;;;;;23.40;12.57;;;-0.40;99.90;;;;;;4915677;29;20035;-79
2021/03/03 00:38:25;;;;;;;22.07;13.27;;;-0.40;99.90;;;;;;4936096;29;20393;-78
2021/03/03 00:40:51;;;;;;;27.93;15.10;;;-0.40;99.90;;;;;;4936674;29;20035;-79
2021/03/03 00:43:16;;;;;;;26.63;15.00;;;-0.40;99.90;;;;;;4940680;29;20425;-79
2021/03/03 00:45:42;;;;;;;26.43;14.67;;;-0.40;99.90;;;;;;4937370;29;20127;-79
2021/03/03 00:48:08;;;;;;;28.53;14.47;;;-0.50;99.90;;;;;;4938546;29;20151;-79
2021/03/03 00:50:34;;;;;;;29.97;14.93;;;-0.50;99.90;;;;;;4955781;29;20035;-78
2021/03/03 00:52:59;;;;;;;30.50;14.33;;;-0.50;99.90;;;;;;4955623;29;20084;-78
2021/03/03 00:55:25;;;;;;;29.03;14.00;;;-0.50;99.90;;;;;;4944102;29;20081;-79
2021/03/03 00:57:50;;;;;;;31.13;13.47;;;-0.60;99.90;;;;;;4936270;29;20036;-78
2021/03/03 01:00:16;;;;;;;26.70;14.20;;;-0.60;99.90;;;;;;4936365;29;20028;-78
2021/03/03 01:02:42;;;;;;;24.37;13.03;;;-0.60;99.90;;;;;;4936830;29;20031;-78
2021/03/03 01:05:08;;;;;;;25.43;12.87;;;-0.60;99.90;;;;;;4938818;29;20028;-77
2021/03/03 01:07:34;;;;;;;24.13;13.93;;;-0.70;99.90;;;;;;4921605;29;20031;-78
2021/03/03 01:09:59;;;;;;;22.10;13.07;;;-0.70;99.90;;;;;;4921751;29;20039;-78
2021/03/03 01:12:25;;;;;;;25.43;13.87;;;-0.70;99.90;;;;;;4938586;29;20485;-78
2021/03/03 01:14:50;;;;;;;25.30;12.77;;;-0.70;99.90;;;;;;4921623;29;20463;-77
2021/03/03 01:17:16;;;;;;;25.63;13.27;;;-0.70;99.90;;;;;;4921521;29;20039;-78
2021/03/03 01:19:41;;;;;;;25.30;14.07;;;-0.80;99.90;;;;;;4938830;29;20028;-78
2021/03/03 01:22:07;;;;;;;25.97;14.43;;;-0.80;99.90;;;;;;4921000;29;20432;-78
2021/03/03 01:24:33;;;;;;;27.67;14.13;;;-0.80;99.90;;;;;;4938404;29;20480;-78
2021/03/03 01:26:58;;;;;;;24.83;13.80;;;-0.80;99.90;;;;;;4921017;29;20032;-77
2021/03/03 01:29:24;;;;;;;22.43;13.50;;;-0.80;99.90;;;;;;4921365;29;20385;-78
2021/03/03 01:31:50;;;;;;;26.37;14.53;;;-0.90;99.90;;;;;;4938366;29;20107;-77
2021/03/03 01:34:15;;;;;;;26.40;14.70;;;-0.90;99.90;;;;;;4938370;29;20421;-78
2021/03/03 01:36:41;;;;;;;27.33;14.03;;;-0.90;99.90;;;;;;4921131;29;20035;-77
2021/03/03 01:39:06;;;;;;;23.43;13.37;;;-0.90;99.90;;;;;;4938248;29;20031;-78
2021/03/03 01:41:32;;;;;;;26.40;12.90;;;-0.90;99.90;;;;;;4921550;29;20047;-77
2021/03/03 01:43:57;;;;;;;22.67;12.73;;;-0.90;99.90;;;;;;4938144;29;20028;-78
2021/03/03 01:46:23;;;;;;;22.20;12.63;;;-1.00;99.90;;;;;;4921256;29;20488;-78
2021/03/03 01:48:49;;;;;;;23.57;12.40;;;-1.00;99.90;;;;;;4937005;29;20083;-78
2021/03/03 01:51:16;;;;;;;23.97;13.03;;;-1.00;99.90;;;;;;4938065;29;20038;-77
2021/03/03 01:53:42;;;;;;;23.37;11.87;;;-1.00;99.90;;;;;;4937882;29;20095;-77
2021/03/03 01:56:07;;;;;;;22.60;12.93;;;-1.10;99.90;;;;;;4937278;29;20039;-78
2021/03/03 01:58:33;;;;;;;23.93;13.20;;;-1.10;99.90;;;;;;4935086;29;20517;-78
2021/03/03 02:00:59;;;;;;;27.70;13.87;;;-1.00;99.90;;;;;;4935340;29;20103;-79
2021/03/03 02:03:24;;;;;;;21.77;12.93;;;-1.10;99.90;;;;;;4935247;29;20036;-79
2021/03/03 02:05:58;;;;;;;26.00;12.70;;;-1.10;99.90;;;;;;4935480;29;20532;-78
2021/03/03 02:08:33;;;;;;;27.90;12.57;;;-1.10;99.90;;;;;;4917956;29;20035;-78
2021/03/03 02:11:04;;;;;;;26.77;12.82;;;-1.10;99.90;;;;;;4934882;29;20066;-78
2021/03/03 02:13:57;;;;;;;23.87;13.07;;;-1.10;99.90;;;;;;4917908;29;20366;-78
2021/03/03 02:16:22;;;;;;;28.70;13.03;;;-1.10;99.90;;;;;;4934908;29;20020;-78
2021/03/03 02:18:48;;;;;;;24.73;13.90;;;-1.10;99.90;;;;;;4934991;29;20028;-78
2021/03/03 02:21:26;;;;;;;21.53;12.20;;;-1.10;99.90;;;;;;4934963;29;20076;-78
2021/03/03 02:23:57;;;;;;;26.10;13.10;;;-1.10;99.90;;;;;;4917861;29;20119;-78
2021/03/03 02:26:33;;;;;;;27.93;12.77;;;-1.10;99.90;;;;;;4934613;29;20106;-78
2021/03/03 02:29:10;;;;;;;25.17;13.60;;;-1.20;99.90;;;;;;4917527;29;20050;-78
2021/03/03 02:31:38;;;;;;;24.43;13.27;;;-1.20;99.90;;;;;;4934682;29;20429;-78
2021/03/03 02:34:05;;;;;;;24.50;13.97;;;-1.20;99.90;;;;;;4934671;29;20354;-78
2021/03/03 02:36:31;;;;;;;24.40;12.73;;;-1.20;99.90;;;;;;4934506;29;20119;-78
2021/03/03 02:39:01;;;;;;;30.80;15.07;;;-1.20;99.90;;;;;;4934501;29;20163;-79
2021/03/03 02:41:29;;;;;;;26.90;13.57;;;-1.20;99.90;;;;;;4934874;29;20183;-78
2021/03/03 02:43:56;;;;;;;25.23;14.03;;;-1.20;99.90;;;;;;4934228;29;20060;-78
2021/03/03 02:46:22;;;;;;;29.07;14.17;;;-1.20;99.90;;;;;;4934476;29;20047;-78
2021/03/03 02:48:48;;;;;;;28.87;14.67;;;-1.20;99.90;;;;;;4949275;29;20102;-78
2021/03/03 02:51:14;;;;;;;27.20;14.07;;;-1.10;99.90;;;;;;4953304;29;20039;-78
2021/03/03 02:53:41;;;;;;;25.70;13.33;;;-1.20;99.90;;;;;;4953787;29;20015;-78
2021/03/03 02:56:06;;;;;;;27.87;14.50;;;-1.20;99.90;;;;;;4953442;29;20019;-78
2021/03/03 02:58:32;;;;;;;24.90;13.80;;;-1.20;99.90;;;;;;4953586;29;20034;-78
2021/03/03 03:01:01;;;;;;;28.63;14.20;;;-1.20;99.90;;;;;;4952907;28;20027;-79
2021/03/03 03:03:48;;;;;;;26.07;12.03;;;-1.20;99.90;;;;;;4953353;29;20511;-79
2021/03/03 03:06:17;;;;;;;23.97;12.67;;;-1.20;99.90;;;;;;4952586;29;20043;-79
2021/03/03 03:08:46;;;;;;;25.17;13.90;;;-1.20;99.90;;;;;;4953344;29;20030;-79
2021/03/03 03:11:16;;;;;;;24.83;13.73;;;-1.10;99.90;;;;;;4952968;29;20043;-79
2021/03/03 03:13:43;;;;;;;29.53;15.67;;;-1.10;99.90;;;;;;4935889;29;20023;-79
2021/03/03 03:16:10;;;;;;;25.07;12.80;;;-1.10;99.90;;;;;;4953322;29;20381;-79
2021/03/03 03:18:41;;;;;;;24.57;13.10;;;-1.20;99.90;;;;;;4953259;29;20035;-79
2021/03/03 03:21:08;;;;;;;26.43;13.73;;;-1.30;99.90;;;;;;4953086;29;20058;-79
2021/03/03 03:23:35;;;;;;;27.87;12.87;;;-1.30;99.90;;;;;;4951145;29;20054;-79
2021/03/03 03:26:01;;;;;;;22.30;12.00;;;-1.30;99.90;;;;;;4916689;29;20030;-79
2021/03/03 03:28:27;;;;;;;24.33;13.77;;;-1.30;99.90;;;;;;4933716;29;20035;-79
2021/03/03 03:30:54;;;;;;;25.63;12.67;;;-1.30;99.90;;;;;;4933882;29;20473;-79
2021/03/03 03:33:21;;;;;;;26.27;13.77;;;-1.30;99.90;;;;;;4933848;29;20028;-79
2021/03/03 03:35:47;;;;;;;25.87;12.37;;;-1.30;99.90;;;;;;4952563;29;20032;-79
2021/03/03 03:38:13;;;;;;;22.27;12.23;;;-1.30;99.90;;;;;;4952923;29;20065;-79
2021/03/03 03:40:39;;;;;;;23.03;13.03;;;-1.30;99.90;;;;;;4952860;29;20031;-79
2021/03/03 03:43:07;;;;;;;26.57;13.17;;;-1.30;99.90;;;;;;4952187;29;20031;-79
2021/03/03 03:45:33;;;;;;;27.80;13.27;;;-1.40;99.90;;;;;;4935362;29;20744;-79
2021/03/03 03:47:59;;;;;;;23.37;12.27;;;-1.40;99.90;;;;;;4952559;29;20101;-79
2021/03/03 03:50:26;;;;;;;28.40;13.33;;;-1.40;99.90;;;;;;4935367;29;20031;-79
2021/03/03 03:52:57;;;;;;;26.77;13.30;;;-1.40;99.90;;;;;;4935163;29;20031;-79
2021/03/03 03:55:33;;;;;;;20.33;12.60;;;-1.40;99.90;;;;;;4952677;29;20027;-79
2021/03/03 03:57:59;;;;;;;23.67;12.57;;;-1.40;99.90;;;;;;4952556;29;20431;-79
2021/03/03 04:00:25;;;;;;;26.90;12.30;;;-1.50;99.90;;;;;;4935014;29;20130;-79
2021/03/03 04:02:51;;;;;;;23.07;11.80;;;-1.50;99.90;;;;;;4952311;29;20035;-79
2021/03/03 04:05:17;;;;;;;24.77;13.63;;;-1.50;99.90;;;;;;4942581;29;20043;-79
2021/03/03 04:07:43;;;;;;;23.33;11.93;;;-1.50;99.90;;;;;;4933194;29;20059;-79
2021/03/03 04:10:12;;;;;;;27.20;13.80;;;-1.60;99.90;;;;;;4915975;29;20075;-79
2021/03/03 04:12:38;;;;;;;24.00;13.47;;;-1.60;99.90;;;;;;4932369;29;20051;-79
2021/03/03 04:15:05;;;;;;;24.77;12.33;;;-1.60;99.90;;;;;;4933234;29;20029;-79
2021/03/03 04:17:31;;;;;;;27.83;13.90;;;-1.60;99.90;;;;;;4933219;29;20043;-79
2021/03/03 04:19:57;;;;;;;22.13;12.13;;;-1.60;99.90;;;;;;4933067;29;20486;-79
2021/03/03 04:22:22;;;;;;;22.17;12.90;;;-1.60;99.90;;;;;;4933073;29;20043;-79
2021/03/03 04:24:48;;;;;;;26.33;13.80;;;-1.60;99.90;;;;;;4933124;29;20028;-79
2021/03/03 04:27:14;;;;;;;21.00;12.40;;;-1.60;99.90;;;;;;4916053;29;20095;-79
2021/03/03 04:29:40;;;;;;;25.80;12.17;;;-1.50;99.90;;;;;;4933170;29;20807;-79
2021/03/03 04:32:06;;;;;;;29.50;13.63;;;-1.60;99.90;;;;;;4932805;29;20027;-79
2021/03/03 04:34:31;;;;;;;25.07;13.67;;;-1.50;99.90;;;;;;4915642;29;20385;-79
2021/03/03 04:36:57;;;;;;;24.47;13.03;;;-1.60;99.90;;;;;;4932855;29;20040;-79
2021/03/03 04:39:22;;;;;;;26.40;13.27;;;-1.60;99.90;;;;;;4933222;29;20032;-79
2021/03/03 04:41:48;;;;;;;29.37;12.33;;;-1.60;99.90;;;;;;4915764;29;20322;-79
2021/03/03 04:44:15;;;;;;;23.90;12.47;;;-1.60;99.90;;;;;;4932847;29;20043;-79
2021/03/03 04:46:41;;;;;;;27.13;13.30;;;-1.60;99.90;;;;;;4932686;29;20381;-79
2021/03/03 04:49:06;;;;;;;25.50;12.80;;;-1.60;99.90;;;;;;4932621;29;20044;-79
2021/03/03 04:51:33;;;;;;;24.63;12.53;;;-1.70;99.90;;;;;;4932936;29;20039;-79
2021/03/03 04:53:59;;;;;;;25.57;12.20;;;-1.70;99.90;;;;;;4932872;29;20032;-79
2021/03/03 04:56:24;;;;;;;21.07;11.60;;;-1.70;99.90;;;;;;4932772;29;20103;-79
2021/03/03 04:58:50;;;;;;;26.23;12.43;;;-1.70;99.90;;;;;;4915984;29;20035;-79
2021/03/03 05:01:15;;;;;;;25.57;13.30;;;-1.70;99.90;;;;;;4932362;29;20056;-79
2021/03/03 05:03:41;;;;;;;27.87;13.30;;;-1.80;99.90;;;;;;4940567;29;20504;-79
2021/03/03 05:06:07;;;;;;;22.10;12.90;;;-1.70;99.90;;;;;;4947727;29;20035;-79
2021/03/03 05:08:33;;;;;;;27.87;13.13;;;-1.80;99.90;;;;;;4934446;29;20032;-80
2021/03/03 05:10:58;;;;;;;23.60;11.93;;;-1.80;99.90;;;;;;4934332;29;20138;-79
2021/03/03 05:13:24;;;;;;;22.90;12.17;;;-1.80;99.90;;;;;;4951707;29;20034;-79
2021/03/03 05:15:49;;;;;;;27.20;12.23;;;-1.80;99.90;;;;;;4935446;29;20199;-81
2021/03/03 05:18:15;;;;;;;29.13;13.33;;;-1.80;99.90;;;;;;4935212;29;20079;-79
2021/03/03 05:20:41;;;;;;;22.83;12.63;;;-1.80;99.90;;;;;;4930777;29;20042;-80
2021/03/03 05:23:07;;;;;;;28.80;14.03;;;-1.70;99.90;;;;;;4933820;29;20568;-79
2021/03/03 05:25:35;;;;;;;30.07;14.90;;;-1.70;99.90;;;;;;4936620;29;20094;-79
2021/03/03 05:28:01;;;;;;;34.33;14.57;;;-1.70;99.90;;;;;;4936427;29;20091;-77
2021/03/03 05:30:27;;;;;;;29.10;14.60;;;-1.70;99.90;;;;;;4920303;29;20035;-77
2021/03/03 05:32:53;;;;;;;23.70;13.40;;;-1.60;99.90;;;;;;4921048;29;20385;-78
2021/03/03 05:35:19;;;;;;;28.80;13.40;;;-1.60;99.90;;;;;;4920517;29;20024;-77
2021/03/03 05:37:45;;;;;;;27.23;13.87;;;-1.60;99.90;;;;;;4920811;29;20031;-77
2021/03/03 05:40:11;;;;;;;27.33;13.30;;;-1.60;99.90;;;;;;4937890;29;20028;-77
2021/03/03 05:42:37;;;;;;;21.30;11.87;;;-1.50;99.90;;;;;;4937797;29;20163;-77
2021/03/03 05:45:05;;;;;;;25.57;11.77;;;-1.50;99.90;;;;;;4920696;29;20087;-77
2021/03/03 05:47:35;;;;;;;25.37;11.97;;;-1.40;99.90;;;;;;4937385;29;20067;-77
2021/03/03 05:50:03;;;;;;;20.70;11.43;;;-1.40;99.90;;;;;;4920508;29;20036;-77
2021/03/03 05:52:31;;;;;;;26.57;11.57;;;-1.40;99.90;;;;;;4920498;29;20076;-77
2021/03/03 05:54:57;;;;;;;20.70;11.13;;;-1.40;99.90;;;;;;4937612;29;20028;-77
2021/03/03 05:57:22;;;;;;;19.70;11.83;;;-1.30;99.90;;;;;;4937346;29;20036;-77
2021/03/03 05:59:49;;;;;;;23.20;10.70;;;-1.30;99.90;;;;;;4937672;29;20186;-78
2021/03/03 06:02:15;;;;;;;21.53;10.90;;;-1.30;99.90;;;;;;4920333;29;20485;-78
2021/03/03 06:04:41;;;;;;;29.13;11.33;;;-1.20;99.90;;;;;;4937729;29;20031;-79
2021/03/03 06:07:07;;;;;;;23.87;10.90;;;-1.20;99.90;;;;;;4937618;29;20122;-79
2021/03/03 06:09:33;;;;;;;24.80;10.70;;;-1.20;99.90;;;;;;4937560;29;20395;-79
2021/03/03 06:11:59;;;;;;;24.07;10.67;;;-1.10;99.90;;;;;;4937370;29;20060;-79
2021/03/03 06:14:24;;;;;;;17.53;9.40;;;-1.00;99.90;;;;;;4937719;29;20027;-79
2021/03/03 06:16:53;;;;;;;20.50;8.73;;;-0.90;99.90;;;;;;4937643;29;20031;-79
2021/03/03 06:19:19;;;;;;;17.27;9.20;;;-0.80;99.90;;;;;;4920354;29;20039;-79
2021/03/03 06:21:44;;;;;;;20.93;9.63;;;-0.80;99.90;;;;;;4936909;29;20044;-82
2021/03/03 06:24:11;;;;;;;15.13;8.53;;;-0.60;99.90;;;;;;4919708;29;20123;-79
2021/03/03 06:26:58;;;;;;;16.97;8.93;;;-0.60;99.90;;;;;;4937870;29;20050;-79
2021/03/03 06:29:28;;;;;;;21.80;9.30;;;-0.40;99.90;;;;;;4906980;29;20020;-80
2021/03/03 06:31:53;;;;;;;33.20;11.10;;;-0.30;99.90;;;;;;4937168;29;20034;-79
2021/03/03 06:34:24;;;;;;;22.00;10.13;;;-0.30;99.90;;;;;;4930776;29;20020;-78
2021/03/03 06:36:55;;;;;;;21.30;9.73;;;-0.20;99.90;;;;;;4916986;29;20060;-79
2021/03/03 06:39:24;;;;;;;23.30;9.83;;;-0.10;99.90;;;;;;4918226;29;20088;-79
2021/03/03 06:41:55;;;;;;;23.33;9.63;;;-0.10;99.90;;;;;;4922331;29;20078;-76
2021/03/03 06:44:21;;;;;;;19.00;8.90;;;0.00;99.90;;;;;;4936550;29;20059;-83
2021/03/03 06:47:06;;;;;;;20.70;9.87;;;0.10;99.90;;;;;;4948127;29;20064;-76
2021/03/03 06:49:32;;;;;;;22.30;8.85;;;0.10;99.90;;;;;;4938222;29;20388;-77
2021/03/03 06:52:12;;;;;;;19.17;9.00;;;0.20;99.90;;;;;;5109790;27;20884;-78
2021/03/03 06:54:38;;;;;;;16.57;8.87;;;0.20;99.90;;;;;;5109629;28;20028;-78
2021/03/03 06:57:05;;;;;;;23.90;9.67;;;0.30;99.90;;;;;;5108042;28;20077;-78
2021/03/03 06:59:33;;;;;;;18.67;10.00;;;0.30;99.90;;;;;;5109749;28;20028;-78
2021/03/03 07:02:11;;;;;;;15.10;9.03;;;0.40;99.90;;;;;;5107242;28;20031;-78
2021/03/03 07:04:44;;;;;;;16.90;8.60;;;0.40;99.90;;;;;;5106475;28;20039;-78
2021/03/03 07:07:17;;;;;;;18.10;9.27;;;0.50;99.90;;;;;;5095236;28;20045;-78
2021/03/03 07:09:50;;;;;;;14.20;8.23;;;0.60;99.90;;;;;;5109363;28;20059;-78
2021/03/03 07:12:47;;;;;;;15.83;8.47;;;0.60;99.90;;;;;;5107710;28;20077;-79
2021/03/03 07:15:13;;;;;;;16.63;7.93;;;0.60;99.90;;;;;;5120859;28;20912;-78
2021/03/03 07:17:41;;;;;;;18.20;8.20;;;0.70;99.90;;;;;;5129762;27;20378;-77
2021/03/03 07:20:10;;;;;;;13.40;7.33;;;0.80;99.90;;;;;;5131030;27;20024;-77
2021/03/03 07:22:38;;;;;;;16.13;7.03;;;0.80;99.90;;;;;;5114784;28;20365;-74
2021/03/03 07:25:05;;;;;;;14.10;7.93;;;0.90;99.90;;;;;;5112836;28;20023;-74
2021/03/03 07:27:31;;;;;;;20.30;7.63;;;1.00;99.90;;;;;;5120532;27;20103;-79
2021/03/03 07:30:03;;;;;;;23.80;7.53;;;1.10;99.90;;;;;;5109972;28;20030;-72
2021/03/03 07:32:29;;;;;;;13.73;6.60;;;1.20;99.90;;;;;;5109108;28;20073;-74
2021/03/03 07:34:56;;;;;;;16.03;6.60;;;1.30;99.90;;;;;;5109951;28;20020;-74
2021/03/03 07:37:40;;;;;;;10.63;6.27;;;1.40;99.90;;;;;;5115621;28;20024;-83
2021/03/03 07:40:14;;;;;;;15.20;6.67;;;1.60;99.90;;;;;;5127438;27;20035;-83
2021/03/03 07:42:40;;;;;;;13.57;6.33;;;1.80;99.90;;;;;;5108981;27;20099;-83
2021/03/03 07:45:11;;;;;;;12.00;6.47;;;1.90;99.90;;;;;;5107396;28;20146;-82
2021/03/03 07:47:41;;;;;;;15.10;6.20;;;2.10;99.90;;;;;;5107595;28;20085;-81
2021/03/03 07:50:12;;;;;;;14.47;6.77;;;2.30;99.90;;;;;;5107367;28;20510;-73
2021/03/03 07:52:43;;;;;;;10.47;5.80;;;2.50;99.90;;;;;;5109757;28;20028;-74
2021/03/03 07:55:09;;;;;;;16.07;7.57;;;2.60;99.90;;;;;;5108171;28;20379;-80
2021/03/03 07:57:38;;;;;;;13.77;7.50;;;2.80;99.90;;;;;;5106594;28;20032;-79
2021/03/03 08:00:07;;;;;;;14.87;6.97;;;2.90;99.90;;;;;;5109653;28;20024;-76
2021/03/03 08:02:43;;;;;;;16.87;7.53;;;3.00;99.90;;;;;;5100807;28;20020;-79
2021/03/03 08:05:09;;;;;;;21.20;7.67;;;3.10;99.90;;;;;;5094701;28;20028;-81
2021/03/03 08:07:35;;;;;;;14.40;6.50;;;3.20;99.90;;;;;;5095237;28;20036;-80
2021/03/03 08:10:19;;;;;;;13.53;7.10;;;3.30;99.90;;;;;;5094235;28;20077;-80
2021/03/03 08:13:07;;;;;;;16.43;6.77;;;3.40;99.90;;;;;;5094638;28;20075;-80
2021/03/03 08:15:46;;;;;;;15.77;7.70;;;3.50;99.90;;;;;;5091669;28;20111;-80
2021/03/03 08:18:26;;;;;;;13.30;6.33;;;3.70;99.90;;;;;;5094412;28;20027;-80
2021/03/03 08:20:55;;;;;;;14.13;6.73;;;3.80;99.90;;;;;;5093335;28;20027;-80
2021/03/03 08:23:37;;;;;;;17.13;6.47;;;3.90;99.90;;;;;;5095323;28;20024;-81
2021/03/03 08:26:15;;;;;;;14.07;6.53;;;4.00;99.90;;;;;;5095511;28;20052;-80
2021/03/03 08:28:44;;;;;;;14.03;6.43;;;4.10;99.90;;;;;;5095737;28;20366;-80
2021/03/03 08:31:16;;;;;;;14.93;5.80;;;4.20;99.90;;;;;;5097050;28;20063;-81
2021/03/03 08:33:41;;;;;;;12.60;6.00;;;4.30;99.90;;;;;;5093061;28;20028;-77
2021/03/03 08:36:11;;;;;;;15.00;5.93;;;4.40;99.90;;;;;;5092399;28;20122;-77
2021/03/03 08:38:37;;;;;;;14.17;5.47;;;4.60;99.90;;;;;;5091732;28;20392;-76
2021/03/03 08:41:14;;;;;;;17.90;6.23;;;4.80;99.90;;;;;;5091935;28;20040;-76
2021/03/03 08:43:42;;;;;;;14.17;6.23;;;4.90;99.90;;;;;;5092951;28;20028;-77
2021/03/03 08:46:20;;;;;;;12.80;5.10;;;5.10;99.90;;;;;;5094026;28;20047;-81
2021/03/03 08:49:06;;;;;;;11.00;4.70;;;5.20;99.90;;;;;;5090940;28;20064;-81
2021/03/03 08:51:42;;;;;;;13.73;5.23;;;5.30;99.90;;;;;;5094780;28;20099;-75
2021/03/03 08:54:11;;;;;;;12.17;5.20;;;5.40;99.90;;;;;;5094605;28;20047;-77
2021/03/03 08:56:53;;;;;;;11.63;5.20;;;5.60;99.90;;;;;;5095900;28;20016;-72
2021/03/03 08:59:28;;;;;;;12.60;6.07;;;5.70;99.90;;;;;;5094997;28;20028;-72
2021/03/03 09:02:15;;;;;;;10.05;5.38;;;5.80;99.90;;;;;;5095296;28;20031;-73
2021/03/03 09:04:46;;;;;;;20.13;6.27;;;6.00;99.90;;;;;;5093786;28;20491;-73
2021/03/03 09:07:24;;;;;;;12.73;5.50;;;6.10;99.90;;;;;;5095253;28;20062;-72
2021/03/03 09:10:30;;;;;;;9.23;5.00;;;6.30;99.90;;;;;;5095867;28;20099;-72
2021/03/03 09:12:56;;;;;;;11.40;5.43;;;6.40;99.90;;;;;;5052829;28;20474;-72
2021/03/03 09:15:22;;;;;;;13.97;5.13;;;6.60;99.90;;;;;;5086754;28;20039;-72
2021/03/03 09:17:48;;;;;;;13.70;4.67;;;6.70;99.90;;;;;;5094854;28;20016;-72
2021/03/03 09:20:18;;;;;;;9.97;4.70;;;6.90;99.90;;;;;;5094721;28;20129;-72
2021/03/03 09:22:47;;;;;;;14.00;5.60;;;7.00;99.90;;;;;;5094989;28;20555;-72
2021/03/03 09:25:20;;;;;;;15.20;5.57;;;7.20;99.90;;;;;;5094535;28;20032;-73
2021/03/03 09:27:48;;;;;;;10.90;4.83;;;7.40;99.90;;;;;;5095630;28;20044;-73
2021/03/03 09:30:15;;;;;;;12.17;4.77;;;7.50;99.90;;;;;;5091659;28;20067;-79
2021/03/03 09:32:40;;;;;;;12.53;5.10;;;7.70;99.90;;;;;;5090776;28;20040;-78
2021/03/03 09:35:07;;;;;;;8.73;4.90;;;7.80;99.90;;;;;;5089055;28;20494;-78
2021/03/03 09:37:43;;;;;;;12.60;4.90;;;8.00;99.90;;;;;;5090400;28;20032;-78
2021/03/03 09:40:12;;;;;;;13.27;4.60;;;8.20;99.90;;;;;;5091486;28;20016;-78
2021/03/03 09:42:40;;;;;;;8.53;4.27;;;8.40;99.90;;;;;;5091145;28;20065;-78
2021/03/03 09:45:08;;;;;;;12.23;4.83;;;8.60;99.90;;;;;;5091431;28;20012;-78
2021/03/03 09:47:38;;;;;;;7.13;4.17;;;8.80;99.90;;;;;;5090979;28;20038;-78
2021/03/03 09:50:17;;;;;;;10.43;4.23;;;9.00;99.90;;;;;;5090629;28;20107;-78
2021/03/03 09:52:45;;;;;;;13.40;4.30;;;9.20;99.90;;;;;;5090346;28;20727;-78
2021/03/03 09:55:17;;;;;;;11.30;4.33;;;9.30;99.90;;;;;;5089919;28;20107;-78
2021/03/03 09:57:48;;;;;;;11.70;3.80;;;9.40;99.90;;;;;;5089849;28;20081;-78
2021/03/03 10:00:22;;;;;;;8.50;3.90;;;9.60;99.90;;;;;;5093078;28;20547;-74
2021/03/03 10:02:52;;;;;;;14.53;4.30;;;9.60;99.90;;;;;;5093826;28;20024;-73
2021/03/03 10:05:18;;;;;;;12.77;4.37;;;9.80;99.90;;;;;;5093920;28;20024;-73
2021/03/03 10:07:49;;;;;;;9.23;3.97;;;9.90;99.90;;;;;;5093836;28;20075;-73
2021/03/03 10:10:17;;;;;;;6.77;4.10;;;9.90;99.90;;;;;;5092344;28;20119;-73
2021/03/03 10:12:43;;;;;;;6.53;4.03;;;10.10;99.90;;;;;;5092593;28;20020;-72
2021/03/03 10:15:12;;;;;;;7.83;3.33;;;10.30;99.90;;;;;;5093563;28;20030;-73
2021/03/03 10:17:47;;;;;;;9.37;3.37;;;10.40;97.80;;;;;;5093680;28;20031;-72
2021/03/03 10:20:31;;;;;;;5.50;3.03;;;10.60;96.70;;;;;;5093477;28;20020;-73
2021/03/03 10:22:58;;;;;;;5.37;2.90;;;10.60;95.30;;;;;;5093385;28;20039;-72
2021/03/03 10:25:33;;;;;;;7.37;3.60;;;10.70;94.80;;;;;;5091891;28;20119;-72
2021/03/03 10:28:27;;;;;;;10.68;3.80;;;10.80;91.80;;;;;;5090794;28;20107;-75
2021/03/03 10:30:55;;;;;;;6.60;3.80;;;10.90;92.80;;;;;;5094696;28;20547;-77
2021/03/03 10:33:41;;;;;;;6.13;3.80;;;11.00;91.40;;;;;;5091786;28;20047;-75
2021/03/03 10:36:08;;;;;;;;;;;11.10;92.30;;;;;;5091492;28;20078;-76
2021/03/03 10:38:34;;;;;;;6.93;3.67;;;11.20;91.10;;;;;;5091059;28;19907;-76
2021/03/03 10:41:02;;;;;;;6.70;3.72;;;11.40;91.10;;;;;;5088788;28;20028;-76
2021/03/03 10:43:29;;;;;;;5.03;3.38;;;11.50;88.70;;;;;;5090576;28;20035;-76
2021/03/03 10:46:18;;;;;;;6.20;3.45;;;11.70;87.60;;;;;;5090767;28;20119;-76
2021/03/03 10:48:45;;;;;;;8.38;3.55;;;11.70;88.10;;;;;;5069232;28;20042;-76
2021/03/03 10:51:12;;;;;;;6.32;3.60;;;11.80;89.70;;;;;;5110160;28;20883;-75
2021/03/03 10:53:48;;;;;;;8.80;3.60;;;11.90;86.70;;;;;;5100368;28;20111;-76
2021/03/03 10:56:18;;;;;;;7.97;3.70;;;11.90;88.20;;;;;;5090250;28;20507;-76
2021/03/03 10:58:44;;;;;;;5.63;3.60;;;12.10;88.40;;;;;;5090447;28;20028;-75
2021/03/03 11:01:09;;;;;;;8.45;3.72;;;12.10;90.00;;;;;;5089895;28;20464;-75
2021/03/03 11:04:07;;;;;;;6.70;3.40;;;12.00;89.00;;;;;;5090449;28;20039;-76
2021/03/03 11:06:33;;;;;;;7.32;3.50;;;12.20;88.80;;;;;;5056212;28;20063;-74
2021/03/03 11:08:59;;;;;;;8.02;3.53;;;12.20;86.50;;;;;;5089904;28;20553;-73
2021/03/03 11:11:25;;;;;;;6.70;3.28;;;12.20;85.90;;;;;;5090798;28;20043;-74
2021/03/03 11:13:51;;;;;;;9.10;3.42;;;12.20;84.10;;;;;;5090355;28;20377;-74
2021/03/03 11:16:16;;;;;;;6.07;3.50;;;12.20;85.10;;;;;;5091541;28;20052;-74
2021/03/03 11:18:42;;;;;;;10.02;3.80;;;12.40;85.50;;;;;;5091383;28;20027;-74
2021/03/03 11:21:08;;;;;;;7.60;4.13;;;12.50;83.10;;;;;;5091319;28;20355;-74
2021/03/03 11:23:34;;;;;;;9.20;4.63;;;12.50;83.10;;;;;;5091678;28;20492;-74
2021/03/03 11:26:00;;;;;;;6.85;3.80;;;12.60;83.40;;;;;;5091936;28;20353;-74
2021/03/03 11:28:26;;;;;;;7.50;4.05;;;12.70;83.30;;;;;;5090369;28;20030;-74
2021/03/03 11:30:52;;;;;;;6.95;4.30;;;12.80;82.70;;;;;;5095342;28;20089;-73
2021/03/03 11:33:18;;;;;;;9.45;4.72;;;12.80;80.90;;;;;;5091491;28;20069;-74
2021/03/03 11:35:44;;;;;;;9.10;4.13;;;12.70;81.60;;;;;;5091083;28;20020;-74
2021/03/03 11:38:10;;;;;;;9.23;4.57;;;12.80;79.50;;;;;;5092687;28;20020;-74
2021/03/03 11:40:36;;;;;;;11.63;4.70;;;12.80;77.20;;;;;;5095493;28;20039;-74
2021/03/03 11:43:02;;;;;;;10.32;5.57;;;12.80;77.00;;;;;;5094522;28;20024;-75
2021/03/03 11:45:28;;;;;;;12.88;5.38;;;12.80;73.50;;;;;;5095113;28;20028;-74
2021/03/03 11:47:53;;;;;;;12.68;5.25;;;12.80;73.30;;;;;;5095101;28;20038;-74
2021/03/03 11:50:19;;;;;;;10.82;4.90;;;12.80;71.30;;;;;;5095030;28;20031;-74
2021/03/03 11:52:45;;;;;;;13.98;5.63;;;12.80;72.70;;;;;;5094875;28;20529;-75
2021/03/03 11:55:10;;;;;;;9.23;4.53;;;12.80;72.60;;;;;;5094418;28;20473;-74
2021/03/03 11:57:36;;;;;;;8.90;4.80;;;12.80;72.30;;;;;;5104923;28;20015;-75
2021/03/03 12:00:10;;;;;;;10.43;4.78;;;12.80;69.10;;;;;;5114928;28;20031;-75
2021/03/03 12:02:35;;;;;;;9.98;4.95;;;12.70;70.50;;;;;;5094342;28;20024;-75
2021/03/03 12:05:01;;;;;;;7.88;5.00;;;12.70;70.80;;;;;;5093610;28;20024;-75
2021/03/03 12:07:28;;;;;;;8.20;4.13;;;12.70;70.80;;;;;;5093127;28;20422;-75
2021/03/03 12:09:53;;;;;;;10.68;4.65;;;12.80;72.60;;;;;;5092777;28;20024;-75
2021/03/03 12:12:19;;;;;;;10.27;4.47;;;12.80;72.10;;;;;;5091883;28;20074;-76
2021/03/03 12:14:44;;;;;;;15.00;4.25;;;12.80;72.40;;;;;;5093343;28;20531;-76
2021/03/03 12:17:10;;;;;;;6.40;4.20;;;12.90;72.40;;;;;;5095467;28;20056;-76
2021/03/03 12:19:36;;;;;;;17.70;4.30;;;12.80;72.50;;;;;;5095322;28;20430;-75
2021/03/03 12:22:01;;;;;;;9.88;4.28;;;12.80;74.20;;;;;;5095922;28;20472;-76
2021/03/03 12:24:27;;;;;;;8.85;4.00;;;12.80;74.70;;;;;;5091713;28;20063;-76
2021/03/03 12:26:53;;;;;;;8.40;3.67;;;12.90;73.60;;;;;;5091792;28;20030;-75
2021/03/03 12:29:19;;;;;;;6.20;4.03;;;13.00;70.60;;;;;;5093015;28;20477;-75
2021/03/03 12:31:45;;;;;;;9.80;4.35;;;12.90;70.50;;;;;;5092526;28;20035;-75
2021/03/03 12:34:10;;;;;;;7.72;4.65;;;13.00;69.70;;;;;;5091483;28;20414;-75
2021/03/03 12:36:36;;;;;;;8.07;4.95;;;12.90;67.20;;;;;;5092917;28;20428;-69
2021/03/03 12:39:02;;;;;;;7.40;4.63;;;13.00;65.20;;;;;;5092825;28;20020;-75
2021/03/03 12:41:27;;;;;;;7.93;4.50;;;13.00;65.70;;;;;;5092839;28;20060;-69
2021/03/03 12:43:53;;;;;;;9.20;4.82;;;13.00;65.10;;;;;;5092420;28;20055;-68